createdAt,value
2018-01-18T00:00:28.891Z,0.60
2018-01-18T00:02:56.591Z,0.60
2018-01-18T00:05:24.290Z,0.70
2018-01-18T00:07:51.951Z,0.70
2018-01-18T00:10:19.585Z,0.70
2018-01-18T00:12:47.279Z,0.80
2018-01-18T00:15:14.963Z,0.80
2018-01-18T00:17:43.397Z,0.80
2018-01-18T00:20:11.068Z,0.70
2018-01-18T00:22:38.850Z,0.70
2018-01-18T00:25:06.491Z,0.70
2018-01-18T00:27:34.182Z,0.60
2018-01-18T00:30:01.868Z,0.50
2018-01-18T00:32:30.276Z,0.50
2018-01-18T00:34:57.936Z,0.50
2018-01-18T00:37:26.315Z,0.50
2018-01-18T00:39:53.954Z,0.50
2018-01-18T00:42:21.618Z,0.50
2018-01-18T00:44:49.339Z,0.50
2018-01-18T00:47:16.971Z,0.50
2018-01-18T00:49:44.678Z,0.50
2018-01-18T00:52:13.119Z,0.50
2018-01-18T00:54:40.758Z,0.40
2018-01-18T00:57:08.458Z,0.50
2018-01-18T00:59:36.126Z,0.50
2018-01-18T01:02:03.763Z,0.50
2018-01-18T01:04:31.451Z,0.50
2018-01-18T01:06:59.130Z,0.60
2018-01-18T01:09:27.557Z,0.70
2018-01-18T01:11:55.220Z,0.60
2018-01-18T01:14:22.886Z,0.60
2018-01-18T01:16:50.534Z,0.70
2018-01-18T01:19:18.217Z,0.70
2018-01-18T01:21:45.956Z,0.70
2018-01-18T01:24:13.591Z,0.70
2018-01-18T01:26:41.251Z,0.70
2018-01-18T01:29:08.948Z,0.70
2018-01-18T01:31:36.593Z,0.70
2018-01-18T01:34:04.305Z,0.80
2018-01-18T01:36:32.744Z,0.80
2018-01-18T01:39:00.387Z,0.80
2018-01-18T01:41:28.061Z,0.90
2018-01-18T01:43:55.733Z,0.90
2018-01-18T01:46:23.363Z,0.90
2018-01-18T01:48:51.050Z,0.90
2018-01-18T01:51:18.684Z,0.90
2018-01-18T01:53:46.367Z,0.80
2018-01-18T01:56:14.046Z,0.90
2018-01-18T01:58:42.504Z,0.90
2018-01-18T02:01:10.129Z,0.90
2018-01-18T02:03:37.850Z,0.90
2018-01-18T02:06:05.575Z,0.80
2018-01-18T02:08:33.243Z,0.90
2018-01-18T02:11:00.913Z,0.90
2018-01-18T02:13:28.596Z,0.90
2018-01-18T02:15:56.232Z,1.00
2018-01-18T02:18:23.897Z,1.00
2018-01-18T02:20:51.565Z,1.00
2018-01-18T02:23:19.208Z,1.00
2018-01-18T02:25:46.876Z,1.00
2018-01-18T02:28:14.537Z,1.00
2018-01-18T02:30:42.265Z,1.00
2018-01-18T02:33:11.647Z,1.00
2018-01-18T02:35:39.329Z,1.00
2018-01-18T02:38:06.969Z,0.90
2018-01-18T02:40:34.661Z,0.90
2018-01-18T02:43:02.341Z,1.00
2018-01-18T02:45:29.977Z,1.00
2018-01-18T02:47:57.660Z,1.00
2018-01-18T02:50:25.323Z,1.00
2018-01-18T02:52:52.964Z,1.10
2018-01-18T02:55:20.637Z,1.10
2018-01-18T02:57:48.294Z,1.20
2018-01-18T03:00:15.923Z,1.10
2018-01-18T03:02:49.572Z,1.10
2018-01-18T03:05:17.272Z,1.00
2018-01-18T03:07:44.904Z,1.10
2018-01-18T03:10:12.576Z,1.10
2018-01-18T03:12:41.008Z,1.10
2018-01-18T03:15:08.688Z,1.10
2018-01-18T03:17:36.366Z,1.10
2018-01-18T03:20:04.803Z,1.20
2018-01-18T03:22:32.441Z,1.10
2018-01-18T03:25:00.118Z,1.20
2018-01-18T03:27:27.805Z,1.20
2018-01-18T03:29:55.455Z,1.20
2018-01-18T03:32:23.133Z,1.20
2018-01-18T03:34:50.813Z,1.20
2018-01-18T03:37:19.223Z,1.30
2018-01-18T03:39:46.885Z,1.30
2018-01-18T03:42:14.544Z,1.30
2018-01-18T03:44:42.186Z,1.30
2018-01-18T03:47:09.847Z,1.30
2018-01-18T03:49:37.521Z,1.30
2018-01-18T03:52:05.183Z,1.40
2018-01-18T03:54:32.845Z,1.30
2018-01-18T03:57:00.534Z,1.30
2018-01-18T03:59:28.181Z,1.40
2018-01-18T04:01:55.857Z,1.40
2018-01-18T04:04:23.531Z,1.40
2018-01-18T04:06:51.164Z,1.40
2018-01-18T04:09:18.812Z,1.40
2018-01-18T04:11:46.472Z,1.40
2018-01-18T04:14:14.153Z,1.40
2018-01-18T04:16:41.846Z,1.40
2018-01-18T04:19:10.281Z,1.50
2018-01-18T04:21:37.962Z,1.40
2018-01-18T04:24:05.636Z,1.50
2018-01-18T04:26:33.305Z,1.50
2018-01-18T04:29:00.937Z,1.50
2018-01-18T04:31:28.617Z,1.50
2018-01-18T04:33:56.302Z,1.50
2018-01-18T04:36:24.705Z,1.60
2018-01-18T04:38:52.374Z,1.50
2018-01-18T04:41:20.038Z,1.70
2018-01-18T04:43:47.660Z,1.70
2018-01-18T04:46:16.116Z,1.80
2018-01-18T04:48:43.802Z,1.70
2018-01-18T04:51:12.198Z,1.90
2018-01-18T04:53:39.890Z,1.90
2018-01-18T04:56:07.553Z,1.80
2018-01-18T04:58:35.182Z,1.80
2018-01-18T05:01:02.860Z,1.70
2018-01-18T05:03:30.533Z,1.80
2018-01-18T05:05:58.160Z,1.90
2018-01-18T05:08:25.889Z,1.90
2018-01-18T05:10:54.330Z,1.80
2018-01-18T05:13:21.984Z,1.90
2018-01-18T05:15:49.650Z,1.90
2018-01-18T05:18:17.304Z,1.80
2018-01-18T05:20:44.948Z,1.80
2018-01-18T05:23:12.618Z,1.80
2018-01-18T05:25:40.303Z,1.90
2018-01-18T05:28:07.952Z,1.80
2018-01-18T05:30:35.630Z,1.80
2018-01-18T05:33:03.304Z,1.90
2018-01-18T05:35:31.736Z,2.00
2018-01-18T05:37:59.437Z,2.00
2018-01-18T05:40:27.117Z,2.00
2018-01-18T05:42:55.528Z,1.80
2018-01-18T05:45:23.209Z,1.90
2018-01-18T05:47:50.875Z,1.80
2018-01-18T05:50:18.529Z,1.90
2018-01-18T05:52:46.210Z,1.80
2018-01-18T05:55:13.907Z,1.80
2018-01-18T05:57:42.350Z,1.80
2018-01-18T06:00:10.024Z,1.80
2018-01-18T06:02:38.449Z,1.70
2018-01-18T06:05:06.091Z,1.70
2018-01-18T06:07:33.753Z,1.80
2018-01-18T06:10:02.033Z,1.90
2018-01-18T06:12:29.675Z,1.80
2018-01-18T06:14:58.124Z,1.80
2018-01-18T06:17:25.784Z,1.80
2018-01-18T06:19:53.418Z,1.80
2018-01-18T06:22:21.099Z,1.80
2018-01-18T06:24:48.769Z,1.80
2018-01-18T06:27:16.416Z,1.80
2018-01-18T06:29:44.252Z,1.80
2018-01-18T06:32:12.060Z,1.90
2018-01-18T06:34:39.707Z,1.90
2018-01-18T06:37:07.400Z,2.00
2018-01-18T06:39:35.830Z,2.00
2018-01-18T06:42:03.451Z,2.00
2018-01-18T06:44:31.243Z,2.10
2018-01-18T06:46:58.974Z,2.10
2018-01-18T06:49:26.804Z,2.00
2018-01-18T06:51:54.574Z,2.10
2018-01-18T06:54:23.228Z,2.10
2018-01-18T06:56:50.856Z,2.10
2018-01-18T06:59:19.292Z,2.00
2018-01-18T07:01:46.982Z,2.00
2018-01-18T07:04:14.752Z,1.90
2018-01-18T07:06:42.441Z,2.00
2018-01-18T07:09:10.101Z,2.00
2018-01-18T07:11:37.729Z,2.00
2018-01-18T07:14:05.389Z,2.10
2018-01-18T07:16:33.114Z,2.30
2018-01-18T07:19:00.746Z,2.30
2018-01-18T07:21:28.416Z,2.40
2018-01-18T07:23:56.097Z,2.40
2018-01-18T07:26:23.756Z,2.50
2018-01-18T07:28:51.440Z,2.50
2018-01-18T07:31:19.254Z,2.60
2018-01-18T07:33:46.890Z,2.70
2018-01-18T07:36:14.573Z,2.70
2018-01-18T07:38:42.262Z,2.80
2018-01-18T07:41:09.908Z,2.80
2018-01-18T07:43:37.582Z,2.80
2018-01-18T07:46:05.277Z,2.80
2018-01-18T07:48:32.961Z,2.90
2018-01-18T07:51:00.635Z,3.00
2018-01-18T07:53:28.327Z,3.00
2018-01-18T07:55:55.976Z,3.10
2018-01-18T07:58:23.639Z,3.20
2018-01-18T08:00:51.312Z,3.20
2018-01-18T08:03:24.503Z,3.30
2018-01-18T08:05:52.186Z,3.30
2018-01-18T08:08:19.828Z,3.30
2018-01-18T08:10:48.257Z,3.50
2018-01-18T08:13:15.925Z,3.50
2018-01-18T08:15:43.590Z,3.70
2018-01-18T08:18:11.275Z,3.80
2018-01-18T08:20:38.936Z,3.90
2018-01-18T08:23:06.633Z,4.00
2018-01-18T08:25:34.301Z,4.00
2018-01-18T08:28:01.969Z,4.00
2018-01-18T08:30:29.610Z,4.00
2018-01-18T08:32:57.293Z,4.00
2018-01-18T08:35:25.001Z,4.00
2018-01-18T08:37:52.640Z,4.00
2018-01-18T08:40:20.329Z,4.00
2018-01-18T08:42:48.076Z,4.00
2018-01-18T08:45:15.713Z,3.90
2018-01-18T08:47:43.393Z,3.80
2018-01-18T08:50:11.065Z,3.80
2018-01-18T08:52:38.702Z,3.80
2018-01-18T08:55:06.358Z,3.80
2018-01-18T08:57:34.028Z,3.70
2018-01-18T09:00:01.666Z,3.70
2018-01-18T09:02:29.334Z,3.80
2018-01-18T09:04:57.002Z,3.90
2018-01-18T09:07:24.671Z,4.00
2018-01-18T09:09:52.348Z,4.10
2018-01-18T09:12:20.084Z,4.30
2018-01-18T09:14:47.745Z,4.20
2018-01-18T09:17:15.416Z,4.30
2018-01-18T09:19:43.074Z,4.40
2018-01-18T09:22:10.753Z,4.50
2018-01-18T09:24:38.412Z,4.60
2018-01-18T09:27:06.857Z,4.90
2018-01-18T09:29:34.509Z,4.80
2018-01-18T09:32:02.183Z,5.00
2018-01-18T09:34:29.853Z,5.00
2018-01-18T09:36:57.494Z,5.10
2018-01-18T09:39:25.156Z,5.20
2018-01-18T09:41:52.821Z,5.20
2018-01-18T09:44:20.428Z,5.30
2018-01-18T09:46:48.091Z,5.30
2018-01-18T09:49:16.519Z,5.40
2018-01-18T09:51:44.158Z,5.40
2018-01-18T09:54:11.833Z,5.50
2018-01-18T09:56:39.508Z,5.50
2018-01-18T09:59:07.149Z,5.70
2018-01-18T10:01:35.580Z,5.80
2018-01-18T10:04:03.277Z,5.80
2018-01-18T10:06:30.901Z,5.80
2018-01-18T10:08:59.400Z,6.00
2018-01-18T10:11:27.068Z,5.90
2018-01-18T10:13:54.755Z,6.00
2018-01-18T10:16:22.429Z,6.00
2018-01-18T10:18:50.960Z,6.10
2018-01-18T10:21:18.604Z,6.10
2018-01-18T10:23:47.049Z,6.20
2018-01-18T10:26:14.716Z,6.10
2018-01-18T10:28:42.433Z,6.30
2018-01-18T10:31:10.092Z,6.40
2018-01-18T10:33:37.746Z,6.40
2018-01-18T10:36:05.414Z,6.50
2018-01-18T10:38:33.067Z,6.60
2018-01-18T10:41:00.738Z,6.70
2018-01-18T10:43:28.384Z,6.70
2018-01-18T10:45:56.062Z,6.90
2018-01-18T10:48:23.765Z,7.00
2018-01-18T10:50:51.392Z,7.00
2018-01-18T10:53:19.828Z,7.10
2018-01-18T10:55:48.286Z,7.10
2018-01-18T10:58:15.935Z,7.10
2018-01-18T11:00:43.651Z,7.20
2018-01-18T11:03:11.325Z,7.20
2018-01-18T11:05:38.966Z,7.30
2018-01-18T11:08:06.766Z,7.30
2018-01-18T11:10:34.428Z,7.40
2018-01-18T11:13:02.166Z,7.40
2018-01-18T11:15:30.658Z,7.50
2018-01-18T11:17:58.318Z,7.40
2018-01-18T11:20:25.975Z,7.40
2018-01-18T11:22:53.642Z,7.40
2018-01-18T11:25:21.311Z,7.40
2018-01-18T11:27:48.988Z,7.50
2018-01-18T11:30:16.659Z,7.50
2018-01-18T11:32:44.327Z,7.50
2018-01-18T11:35:12.729Z,7.50
2018-01-18T11:37:40.395Z,7.50
2018-01-18T11:40:08.053Z,7.50
2018-01-18T11:42:35.688Z,7.50
2018-01-18T11:45:04.147Z,7.50
2018-01-18T11:47:31.818Z,7.50
2018-01-18T11:50:00.225Z,7.60
2018-01-18T11:52:27.895Z,7.60
2018-01-18T11:54:55.559Z,7.50
2018-01-18T11:57:23.198Z,7.60
2018-01-18T11:59:50.864Z,7.60
2018-01-18T12:02:18.523Z,7.60
2018-01-18T12:04:46.144Z,7.60
2018-01-18T12:07:13.820Z,7.60
2018-01-18T12:09:42.269Z,7.50
2018-01-18T12:12:09.904Z,7.50
2018-01-18T12:14:37.593Z,7.60
2018-01-18T12:17:05.252Z,7.60
2018-01-18T12:19:32.881Z,7.70
2018-01-18T12:22:00.557Z,7.70
2018-01-18T12:24:28.277Z,7.70
2018-01-18T12:26:56.682Z,8.00
2018-01-18T12:29:24.352Z,8.00
2018-01-18T12:31:52.036Z,8.30
2018-01-18T12:34:19.703Z,8.50
2018-01-18T12:36:47.363Z,8.50
2018-01-18T12:39:15.025Z,8.50
2018-01-18T12:41:42.668Z,8.70
2018-01-18T12:44:10.335Z,8.60
2018-01-18T12:46:38.026Z,8.60
2018-01-18T12:49:06.426Z,8.40
2018-01-18T12:51:34.099Z,8.40
2018-01-18T12:54:02.540Z,8.30
2018-01-18T12:56:30.927Z,8.30
2018-01-18T12:58:59.368Z,8.40
2018-01-18T13:01:27.015Z,8.40
2018-01-18T13:03:54.700Z,8.30
2018-01-18T13:06:22.360Z,8.30
2018-01-18T13:08:50.018Z,8.30
2018-01-18T13:11:17.757Z,8.30
2018-01-18T13:13:45.423Z,8.30
2018-01-18T13:16:13.091Z,8.30
2018-01-18T13:18:40.737Z,8.40
2018-01-18T13:21:08.428Z,8.40
2018-01-18T13:23:36.889Z,8.40
2018-01-18T13:26:04.543Z,8.40
2018-01-18T13:28:32.389Z,8.60
2018-01-18T13:31:00.164Z,8.60
2018-01-18T13:33:28.070Z,8.80
2018-01-18T13:35:56.488Z,9.00
2018-01-18T13:38:24.920Z,8.90
2018-01-18T13:40:52.600Z,9.00
2018-01-18T13:43:21.034Z,8.80
2018-01-18T13:45:48.708Z,8.80
2018-01-18T13:48:16.349Z,8.80
2018-01-18T13:50:44.021Z,8.70
2018-01-18T13:53:11.701Z,8.50
2018-01-18T13:55:40.117Z,8.30
2018-01-18T13:58:07.788Z,8.30
2018-01-18T14:00:36.240Z,8.20
2018-01-18T14:03:03.885Z,8.20
2018-01-18T14:05:31.573Z,8.20
2018-01-18T14:07:59.235Z,8.20
2018-01-18T14:10:26.945Z,8.30
2018-01-18T14:12:54.610Z,8.30
2018-01-18T14:15:22.271Z,8.30
2018-01-18T14:17:49.941Z,8.30
2018-01-18T14:20:18.385Z,8.40
2018-01-18T14:22:46.059Z,8.40
2018-01-18T14:25:13.689Z,8.40
2018-01-18T14:27:41.343Z,8.40
2018-01-18T14:30:09.009Z,8.40
2018-01-18T14:32:36.650Z,8.40
2018-01-18T14:35:04.360Z,8.40
2018-01-18T14:37:32.052Z,8.40
2018-01-18T14:40:00.470Z,8.50
2018-01-18T14:42:28.145Z,8.40
2018-01-18T14:44:55.816Z,8.60
2018-01-18T14:47:23.463Z,8.60
2018-01-18T14:49:51.135Z,8.70
2018-01-18T14:52:18.861Z,8.70
2018-01-18T14:54:46.550Z,8.70
2018-01-18T14:57:14.287Z,8.60
2018-01-18T14:59:42.274Z,8.70
2018-01-18T15:02:09.924Z,8.70
2018-01-18T15:04:37.588Z,8.80
2018-01-18T15:07:05.255Z,8.70
2018-01-18T15:09:32.899Z,8.80
2018-01-18T15:12:00.574Z,8.80
2018-01-18T15:14:28.246Z,8.80
2018-01-18T15:16:55.898Z,8.80
2018-01-18T15:19:23.581Z,8.80
2018-01-18T15:21:51.256Z,8.80
2018-01-18T15:24:18.894Z,8.70
2018-01-18T15:26:46.565Z,8.70
2018-01-18T15:29:14.319Z,8.80
2018-01-18T15:31:42.179Z,8.80
2018-01-18T15:34:09.847Z,8.70
2018-01-18T15:36:37.524Z,8.70
2018-01-18T15:39:05.226Z,8.50
2018-01-18T15:41:32.911Z,8.50
2018-01-18T15:44:00.777Z,8.50
2018-01-18T15:46:28.461Z,8.50
2018-01-18T15:48:56.136Z,8.50
2018-01-18T15:51:24.572Z,8.50
2018-01-18T15:53:52.263Z,8.50
2018-01-18T15:56:19.922Z,8.50
2018-01-18T15:58:47.627Z,8.60
2018-01-18T16:01:15.265Z,8.60
2018-01-18T16:03:43.709Z,8.60
2018-01-18T16:06:11.369Z,8.60
2018-01-18T16:08:39.029Z,8.50
2018-01-18T16:11:06.791Z,8.50
2018-01-18T16:13:34.468Z,8.50
2018-01-18T16:16:02.146Z,8.40
2018-01-18T16:18:29.863Z,8.50
2018-01-18T16:20:57.556Z,8.50
2018-01-18T16:23:25.219Z,8.60
2018-01-18T16:25:53.656Z,8.60
2018-01-18T16:28:21.364Z,8.60
2018-01-18T16:30:49.788Z,8.70
2018-01-18T16:33:17.481Z,8.70
2018-01-18T16:35:45.145Z,8.80
2018-01-18T16:38:12.794Z,8.60
2018-01-18T16:40:40.500Z,8.30
2018-01-18T16:43:08.869Z,8.00
2018-01-18T16:45:37.311Z,7.60
2018-01-18T16:48:05.003Z,7.60
2018-01-18T16:50:33.451Z,7.50
2018-01-18T16:53:01.100Z,7.50
2018-01-18T16:55:29.065Z,7.50
2018-01-18T16:57:56.721Z,7.70
2018-01-18T17:00:24.400Z,7.90
2018-01-18T17:02:52.087Z,8.00
2018-01-18T17:05:20.526Z,8.10
2018-01-18T17:07:48.148Z,8.00
2018-01-18T17:10:15.837Z,8.20
2018-01-18T17:12:43.534Z,8.30
2018-01-18T17:15:11.200Z,8.40
2018-01-18T17:17:38.876Z,8.40
2018-01-18T17:20:07.320Z,8.50
2018-01-18T17:22:34.985Z,8.50
2018-01-18T17:25:02.647Z,8.50
2018-01-18T17:27:30.359Z,8.50
2018-01-18T17:29:58.005Z,8.60
2018-01-18T17:32:26.659Z,8.60
2018-01-18T17:34:54.341Z,8.60
2018-01-18T17:37:22.755Z,8.70
2018-01-18T17:39:50.436Z,8.70
2018-01-18T17:42:18.106Z,8.70
2018-01-18T17:44:45.737Z,8.70
2018-01-18T17:47:13.396Z,8.70
2018-01-18T17:49:41.061Z,8.50
2018-01-18T17:52:08.699Z,8.30
2018-01-18T17:54:36.360Z,7.90
2018-01-18T17:57:04.036Z,7.50
2018-01-18T17:59:31.676Z,7.20
2018-01-18T18:01:59.367Z,7.10
2018-01-18T18:04:27.064Z,7.00
2018-01-18T18:06:54.685Z,6.90
2018-01-18T18:09:22.345Z,6.90
2018-01-18T18:11:49.996Z,6.90
2018-01-18T18:14:17.646Z,6.90
2018-01-18T18:16:45.316Z,6.90
2018-01-18T18:19:13.007Z,6.80
2018-01-18T18:21:40.662Z,6.80
2018-01-18T18:24:08.329Z,6.80
2018-01-18T18:26:36.017Z,6.80
2018-01-18T18:29:04.466Z,6.80
2018-01-18T18:31:32.140Z,6.80
2018-01-18T18:33:59.810Z,6.70
2018-01-18T18:36:28.255Z,6.70
2018-01-18T18:38:55.934Z,6.60
2018-01-18T18:41:23.616Z,6.60
2018-01-18T18:43:52.030Z,6.50
2018-01-18T18:46:20.466Z,6.40
2018-01-18T18:48:48.926Z,6.20
2018-01-18T18:51:16.583Z,6.20
2018-01-18T18:53:45.320Z,6.20
2018-01-18T18:56:13.220Z,6.10
2018-01-18T18:58:41.024Z,6.10
2018-01-18T19:01:09.643Z,6.00
2018-01-18T19:03:37.604Z,6.00
2018-01-18T19:06:05.429Z,6.00
2018-01-18T19:08:33.138Z,6.00
2018-01-18T19:11:00.906Z,5.90
2018-01-18T19:13:28.586Z,5.80
2018-01-18T19:15:56.340Z,5.80
2018-01-18T19:18:24.066Z,5.80
2018-01-18T19:20:51.761Z,5.80
2018-01-18T19:23:19.560Z,5.70
2018-01-18T19:25:48.062Z,5.70
2018-01-18T19:28:16.499Z,5.60
2018-01-18T19:30:44.209Z,5.60
2018-01-18T19:33:11.954Z,5.60
2018-01-18T19:35:40.365Z,5.50
2018-01-18T19:38:08.149Z,5.50
2018-01-18T19:40:35.889Z,5.50
2018-01-18T19:43:03.668Z,5.40
2018-01-18T19:45:31.763Z,5.40
2018-01-18T19:47:59.480Z,5.30
2018-01-18T19:50:27.170Z,5.30
2018-01-18T19:52:55.114Z,5.20
2018-01-18T19:55:23.032Z,5.10
2018-01-18T19:57:51.607Z,4.90
2018-01-18T20:00:19.385Z,4.90
2018-01-18T20:02:48.037Z,4.40
2018-01-18T20:05:15.900Z,4.40
2018-01-18T20:07:43.880Z,4.10
2018-01-18T20:10:11.826Z,3.80
2018-01-18T20:12:39.725Z,3.50
2018-01-18T20:15:08.440Z,3.30
2018-01-18T20:17:36.295Z,3.10
2018-01-18T20:20:04.824Z,3.10
2018-01-18T20:22:32.588Z,3.10
2018-01-18T20:25:00.406Z,3.10
2018-01-18T20:27:28.208Z,3.30
2018-01-18T20:29:56.157Z,3.30
2018-01-18T20:32:23.965Z,3.30
2018-01-18T20:34:52.318Z,3.30
2018-01-18T20:37:20.204Z,3.30
2018-01-18T20:39:48.087Z,3.40
2018-01-18T20:42:16.629Z,3.40
2018-01-18T20:44:44.589Z,3.40
2018-01-18T20:47:13.503Z,3.50
2018-01-18T20:49:41.307Z,3.40
2018-01-18T20:52:09.159Z,3.50
2018-01-18T20:54:37.854Z,3.60
2018-01-18T20:57:05.629Z,3.60
2018-01-18T20:59:33.400Z,3.60
2018-01-18T21:02:01.896Z,3.60
2018-01-18T21:04:29.632Z,3.60
2018-01-18T21:06:57.454Z,3.60
2018-01-18T21:09:25.344Z,3.60
2018-01-18T21:11:53.211Z,3.60
2018-01-18T21:14:21.766Z,3.60
2018-01-18T21:16:49.534Z,3.60
2018-01-18T21:19:17.419Z,3.60
2018-01-18T21:21:45.124Z,3.50
2018-01-18T21:24:12.812Z,3.60
2018-01-18T21:26:40.441Z,3.60
2018-01-18T21:29:08.149Z,3.70
2018-01-18T21:31:36.625Z,3.90
2018-01-18T21:34:04.344Z,3.90
2018-01-18T21:36:32.055Z,3.90
2018-01-18T21:39:00.493Z,4.00
2018-01-18T21:41:28.132Z,3.90
2018-01-18T21:43:55.799Z,3.90
2018-01-18T21:46:23.484Z,4.00
2018-01-18T21:48:52.197Z,4.00
2018-01-18T21:51:20.673Z,4.00
2018-01-18T21:53:49.255Z,4.00
2018-01-18T21:56:17.135Z,4.00
2018-01-18T21:58:44.939Z,4.00
2018-01-18T22:01:12.689Z,4.00
2018-01-18T22:03:40.507Z,4.00
2018-01-18T22:06:09.022Z,3.90
2018-01-18T22:08:36.745Z,3.90
2018-01-18T22:11:04.556Z,3.90
2018-01-18T22:13:32.417Z,3.80
2018-01-18T22:16:00.243Z,3.80
2018-01-18T22:18:28.703Z,3.80
2018-01-18T22:20:56.448Z,3.80
2018-01-18T22:23:24.348Z,3.70
2018-01-18T22:25:52.840Z,3.60
2018-01-18T22:28:21.302Z,3.70
2018-01-18T22:30:49.837Z,3.60
2018-01-18T22:33:17.585Z,3.50
2018-01-18T22:35:45.310Z,3.50
2018-01-18T22:38:13.820Z,3.40
2018-01-18T22:40:41.872Z,3.40
2018-01-18T22:43:09.684Z,3.40
2018-01-18T22:45:38.222Z,3.40
2018-01-18T22:48:05.855Z,3.40
2018-01-18T22:50:33.513Z,3.30
2018-01-18T22:53:02.039Z,3.30
2018-01-18T22:55:30.893Z,3.30
2018-01-18T22:57:59.625Z,3.40
2018-01-18T23:00:27.305Z,3.30
2018-01-18T23:02:54.937Z,3.30
2018-01-18T23:05:22.612Z,3.40
2018-01-18T23:07:50.346Z,3.40
2018-01-18T23:10:18.770Z,3.50
2018-01-18T23:12:47.374Z,3.50
2018-01-18T23:15:15.826Z,3.50
2018-01-18T23:17:44.172Z,3.50
2018-01-18T23:20:11.937Z,3.50
2018-01-18T23:22:39.618Z,3.60
2018-01-18T23:25:07.371Z,3.60
2018-01-18T23:27:35.061Z,3.60
2018-01-18T23:30:02.754Z,3.50
2018-01-18T23:32:31.264Z,3.50
2018-01-18T23:34:58.949Z,3.50
2018-01-18T23:37:26.660Z,3.40
2018-01-18T23:39:54.465Z,3.40
2018-01-18T23:42:22.153Z,3.40
2018-01-18T23:44:49.860Z,3.30
2018-01-18T23:47:17.500Z,3.30
2018-01-18T23:49:45.937Z,3.30
2018-01-18T23:52:13.612Z,3.30
2018-01-18T23:54:41.261Z,3.30
2018-01-18T23:57:08.946Z,3.30
2018-01-18T23:59:36.744Z,3.30
